Time;durP1;ratioP1;P1;durP2;ratioP2;P2;SDS_P1;SDS_P2;PMS_P1;PMS_P2;Temp;Humidity;BMP_temperature;BMP_pressure;BME280_temperature;BME280_humidity;BME280_pressure;Samples;Min_cycle;Max_cycle;Signal;HPM_P1;HPM_P2
2022/06/01 00:00:17;;;;;;;15.23;12.63;;;12.70;99.90;;;;;;5069871;28;20490;-47
2022/06/01 00:02:43;;;;;;;13.68;11.88;;;12.70;99.90;;;;;;5068693;28;20354;-48
2022/06/01 00:05:08;;;;;;;17.20;13.43;;;12.80;99.90;;;;;;5068784;28;20078;-48
2022/06/01 00:07:34;;;;;;;15.32;13.75;;;12.80;99.90;;;;;;5068925;28;20513;-47
2022/06/01 00:09:59;;;;;;;15.10;13.57;;;12.80;99.90;;;;;;5069622;28;20035;-47
2022/06/01 00:12:25;;;;;;;19.73;14.53;;;12.80;99.90;;;;;;5068729;28;20079;-48
2022/06/01 00:14:51;;;;;;;14.98;13.48;;;12.80;99.90;;;;;;5068986;28;20481;-48
2022/06/01 00:17:16;;;;;;;14.63;13.07;;;12.80;99.90;;;;;;5068989;28;20520;-47
2022/06/01 00:19:43;;;;;;;15.77;14.18;;;12.80;99.90;;;;;;5069446;28;20086;-47
2022/06/01 00:22:11;;;;;;;;;;;12.80;99.90;;;;;;5068682;28;20036;-48
2022/06/01 00:24:41;;;;;;;15.98;14.23;;;12.80;99.90;;;;;;5071589;28;19978;-47
2022/06/01 00:27:08;;;;;;;17.25;15.45;;;12.70;99.90;;;;;;5072239;28;20636;-47
2022/06/01 00:29:34;;;;;;;20.30;15.43;;;12.70;99.90;;;;;;5072733;28;20083;-47
2022/06/01 00:31:59;;;;;;;19.75;14.27;;;12.70;99.90;;;;;;5072253;28;20072;-48
2022/06/01 00:34:25;;;;;;;17.47;15.67;;;12.70;99.90;;;;;;5069621;28;20485;-48
2022/06/01 00:36:51;;;;;;;16.63;14.95;;;12.70;99.90;;;;;;5070922;28;20513;-48
2022/06/01 00:39:16;;;;;;;18.90;17.05;;;12.60;99.90;;;;;;5072370;28;20119;-47
2022/06/01 00:41:42;;;;;;;19.60;16.25;;;12.60;99.90;;;;;;5072243;28;20044;-47
2022/06/01 00:44:08;;;;;;;18.20;16.50;;;12.60;99.90;;;;;;5070719;28;20050;-47
2022/06/01 00:46:33;;;;;;;18.00;16.10;;;12.50;99.90;;;;;;5070633;28;20414;-49
2022/06/01 00:49:14;;;;;;;16.35;14.70;;;12.50;99.90;;;;;;5071861;28;20048;-47
2022/06/01 00:51:41;;;;;;;16.67;15.02;;;12.50;99.90;;;;;;5071764;28;20094;-48
2022/06/01 00:54:07;;;;;;;17.75;16.15;;;12.40;99.90;;;;;;5071204;28;20044;-48
2022/06/01 00:56:42;;;;;;;18.20;16.20;;;12.40;99.90;;;;;;5071720;28;20036;-47
2022/06/01 00:59:13;;;;;;;18.63;16.80;;;12.40;99.90;;;;;;5072142;28;20072;-47
2022/06/01 01:01:39;;;;;;;18.15;16.35;;;12.40;99.90;;;;;;5071399;28;20040;-47
2022/06/01 01:04:06;;;;;;;18.63;16.83;;;12.40;99.90;;;;;;5070601;28;20382;-47
2022/06/01 01:06:35;;;;;;;19.55;16.33;;;12.30;99.90;;;;;;5071263;28;20098;-48
2022/06/01 01:09:02;;;;;;;18.75;16.75;;;12.30;99.90;;;;;;5070410;28;20477;-47
2022/06/01 01:11:42;;;;;;;20.52;18.40;;;12.30;99.90;;;;;;5072045;28;20052;-48
2022/06/01 01:14:11;;;;;;;18.67;16.90;;;12.30;99.90;;;;;;5068978;28;20045;-48
2022/06/01 01:16:36;;;;;;;20.13;18.13;;;12.20;99.90;;;;;;5070978;28;20397;-48
2022/06/01 01:19:07;;;;;;;20.00;17.90;;;12.30;99.90;;;;;;5071843;28;20127;-47
2022/06/01 01:21:56;;;;;;;19.00;17.08;;;12.30;99.90;;;;;;5071665;28;20525;-46
2022/06/01 01:24:37;;;;;;;20.45;18.33;;;12.20;99.90;;;;;;5070075;28;20048;-47
2022/06/01 01:27:04;;;;;;;20.00;17.45;;;12.20;99.90;;;;;;5071516;28;20037;-46
2022/06/01 01:29:34;;;;;;;19.85;17.80;;;12.20;99.90;;;;;;5071602;28;20043;-48
2022/06/01 01:32:00;;;;;;;18.38;16.40;;;12.20;99.90;;;;;;5071738;28;20120;-47
2022/06/01 01:34:26;;;;;;;19.95;17.92;;;12.20;99.90;;;;;;5069975;28;20111;-47
2022/06/01 01:36:57;;;;;;;19.42;17.52;;;12.20;99.90;;;;;;5063041;28;20126;-48
2022/06/01 01:39:24;;;;;;;20.33;18.33;;;12.10;99.90;;;;;;5071015;28;20048;-46
2022/06/01 01:41:52;;;;;;;21.75;19.42;;;12.20;99.90;;;;;;5067599;28;20045;-48
2022/06/01 01:44:18;;;;;;;21.50;18.90;;;12.10;99.90;;;;;;5069680;28;20037;-47
2022/06/01 01:46:47;;;;;;;20.60;18.67;;;12.20;99.90;;;;;;5070744;28;20517;-47
2022/06/01 01:49:15;;;;;;;22.40;20.17;;;12.20;99.90;;;;;;5071338;28;20060;-47
2022/06/01 01:51:40;;;;;;;22.45;19.77;;;12.20;99.90;;;;;;5070643;28;20032;-48
2022/06/01 01:54:23;;;;;;;20.83;18.73;;;12.10;99.90;;;;;;5070054;28;20074;-48
2022/06/01 01:57:13;;;;;;;20.90;18.95;;;12.10;99.90;;;;;;5070507;28;20047;-48
2022/06/01 02:00:15;;;;;;;20.08;17.90;;;12.10;99.90;;;;;;5070454;28;20048;-47
2022/06/01 02:03:10;;;;;;;22.45;18.73;;;12.10;99.90;;;;;;5056684;28;20489;-47
2022/06/01 02:06:04;;;;;;;20.15;18.13;;;12.10;99.90;;;;;;5051841;28;20048;-47
2022/06/01 02:08:46;;;;;;;20.70;17.40;;;12.10;99.90;;;;;;5070329;28;20326;-47
2022/06/01 02:14:07;;;;;;;19.90;17.90;;;12.00;99.90;;;;;;5069633;28;20036;-46
2022/06/01 02:16:39;;;;;;;20.08;17.95;;;12.00;99.90;;;;;;5070256;28;20040;-47
2022/06/01 02:19:09;;;;;;;20.42;18.38;;;12.00;99.90;;;;;;5070172;28;20047;-47
2022/06/01 02:21:36;;;;;;;18.90;17.13;;;12.00;99.90;;;;;;5069803;28;20050;-47
2022/06/01 02:24:01;;;;;;;;;;;12.00;99.90;;;;;;5068018;28;20040;-47
2022/06/01 02:26:28;;;;;;;20.38;18.35;;;12.00;99.90;;;;;;5070522;28;19920;-46
2022/06/01 02:29:20;;;;;;;21.52;18.58;;;12.00;99.90;;;;;;5085508;28;20068;-46
2022/06/01 02:31:47;;;;;;;20.23;18.02;;;11.90;99.90;;;;;;5063993;28;20052;-46
2022/06/01 02:34:13;;;;;;;20.25;17.15;;;11.90;99.90;;;;;;5069244;28;20124;-47
2022/06/01 02:36:42;;;;;;;19.42;17.35;;;11.90;99.90;;;;;;5069551;28;20095;-46
2022/06/01 02:39:10;;;;;;;22.70;20.08;;;11.80;99.90;;;;;;5069945;28;20032;-47
2022/06/01 02:44:20;;;;;;;19.73;17.83;;;11.80;99.90;;;;;;5069803;28;20115;-46
2022/06/01 02:46:46;;;;;;;20.73;18.63;;;11.80;99.90;;;;;;5070930;28;20509;-47
2022/06/01 02:49:12;;;;;;;22.70;19.08;;;11.70;99.90;;;;;;5070281;28;20033;-46
2022/06/01 02:51:37;;;;;;;20.33;18.23;;;11.70;99.90;;;;;;5069346;28;20037;-46
2022/06/01 02:54:03;;;;;;;21.48;19.35;;;11.70;99.90;;;;;;5068872;28;20062;-47
2022/06/01 02:56:29;;;;;;;20.52;18.35;;;11.70;99.90;;;;;;5067883;28;20032;-47
2022/06/01 02:58:55;;;;;;;22.43;20.30;;;11.70;99.90;;;;;;5069705;28;20068;-46
2022/06/01 03:01:22;;;;;;;19.73;17.77;;;11.70;99.90;;;;;;5069262;28;20702;-47
2022/06/01 03:03:48;;;;;;;19.50;17.45;;;11.70;99.90;;;;;;5068182;28;20048;-47
2022/06/01 03:06:14;;;;;;;23.35;18.55;;;11.70;99.90;;;;;;5069562;28;20044;-47
2022/06/01 03:08:41;;;;;;;20.45;18.45;;;11.60;99.90;;;;;;5069971;28;20040;-48
2022/06/01 03:11:07;;;;;;;19.85;17.85;;;11.70;99.90;;;;;;5069298;28;20078;-47
2022/06/01 03:13:32;;;;;;;20.77;18.05;;;11.70;99.90;;;;;;5068283;28;20040;-47
2022/06/01 03:15:59;;;;;;;22.08;19.20;;;11.60;99.90;;;;;;5069303;28;20032;-46
2022/06/01 03:18:25;;;;;;;19.60;17.67;;;11.60;99.90;;;;;;5069721;28;20040;-47
2022/06/01 03:20:51;;;;;;;20.48;18.48;;;11.60;99.90;;;;;;5068890;28;20074;-48
2022/06/01 03:23:19;;;;;;;20.85;18.60;;;11.60;99.90;;;;;;5068263;28;20068;-47
2022/06/01 03:25:44;;;;;;;21.45;19.30;;;11.60;99.90;;;;;;5069703;28;20079;-47
2022/06/01 03:28:10;;;;;;;20.90;18.85;;;11.50;99.90;;;;;;5069924;28;20037;-47
2022/06/01 03:30:36;;;;;;;22.92;20.75;;;11.50;99.90;;;;;;5069336;28;20033;-46
2022/06/01 03:33:01;;;;;;;24.75;22.30;;;11.50;99.90;;;;;;5068225;28;20555;-47
2022/06/01 03:35:30;;;;;;;22.35;19.95;;;11.50;99.90;;;;;;5069013;28;20500;-47
2022/06/01 03:37:57;;;;;;;23.23;20.92;;;11.50;99.90;;;;;;5068587;28;20111;-47
2022/06/01 03:40:25;;;;;;;25.23;22.67;;;11.50;99.90;;;;;;5068910;28;20036;-46
2022/06/01 03:42:51;;;;;;;26.20;23.40;;;11.50;99.90;;;;;;5067992;28;20041;-47
2022/06/01 03:48:01;;;;;;;25.98;23.27;;;11.50;99.90;;;;;;5069083;28;20767;-47
2022/06/01 03:50:28;;;;;;;27.70;24.67;;;11.60;99.90;;;;;;5069559;28;20037;-47
2022/06/01 03:52:55;;;;;;;28.77;25.90;;;11.60;99.90;;;;;;5065851;28;20040;-47
2022/06/01 03:55:21;;;;;;;28.77;25.73;;;11.50;99.90;;;;;;5069417;28;20044;-47
2022/06/01 03:57:47;;;;;;;28.05;25.08;;;11.60;99.90;;;;;;5069959;28;20028;-47
2022/06/01 04:00:21;;;;;;;30.13;25.17;;;11.60;99.90;;;;;;5073151;28;20037;-47
2022/06/01 04:02:47;;;;;;;30.05;25.15;;;11.60;99.90;;;;;;5071725;28;20170;-46
2022/06/01 04:05:12;;;;;;;28.20;25.15;;;11.60;99.90;;;;;;5056656;28;20111;-46
2022/06/01 04:07:38;;;;;;;30.80;26.33;;;11.60;99.90;;;;;;5072437;28;20043;-48
2022/06/01 04:10:04;;;;;;;29.92;25.08;;;11.60;99.90;;;;;;5073443;28;20044;-46
2022/06/01 04:12:30;;;;;;;30.15;25.33;;;11.60;99.90;;;;;;5071687;28;20036;-47
2022/06/01 04:14:55;;;;;;;27.85;24.98;;;11.60;99.90;;;;;;5054842;28;20051;-47
2022/06/01 04:17:21;;;;;;;26.83;24.10;;;11.60;99.90;;;;;;5072602;28;20029;-45
2022/06/01 04:19:47;;;;;;;27.93;25.03;;;11.60;99.90;;;;;;5072608;28;20468;-46
2022/06/01 04:22:13;;;;;;;29.88;26.48;;;11.70;99.90;;;;;;5071690;28;20091;-47
2022/06/01 04:24:39;;;;;;;;;;;11.70;99.90;;;;;;5072860;28;20045;-46
2022/06/01 04:27:05;;;;;;;27.50;24.25;;;11.60;99.90;;;;;;5071736;28;19916;-47
2022/06/01 04:29:31;;;;;;;26.92;24.10;;;11.70;99.90;;;;;;5073007;28;20054;-46
2022/06/01 04:32:04;;;;;;;29.47;25.17;;;11.60;99.90;;;;;;5071869;28;20040;-46
2022/06/01 04:34:30;;;;;;;29.05;26.05;;;11.70;99.90;;;;;;5070895;28;20037;-47
2022/06/01 04:36:55;;;;;;;27.30;24.40;;;11.60;99.90;;;;;;5070808;28;20261;-47
2022/06/01 04:39:22;;;;;;;28.70;25.60;;;11.70;99.90;;;;;;5072093;28;20029;-46
2022/06/01 04:41:48;;;;;;;28.60;25.08;;;11.70;99.90;;;;;;5071477;28;20485;-47
2022/06/01 04:44:13;;;;;;;27.77;24.90;;;11.60;99.90;;;;;;5070928;28;20036;-47
2022/06/01 04:46:39;;;;;;;29.98;26.77;;;11.60;99.90;;;;;;5072029;28;20037;-47
2022/06/01 04:49:07;;;;;;;26.93;24.13;;;11.60;99.90;;;;;;5071952;28;20059;-46
2022/06/01 04:51:34;;;;;;;27.42;24.52;;;11.60;99.90;;;;;;5072161;28;20055;-48
2022/06/01 04:53:59;;;;;;;29.65;26.52;;;11.60;99.90;;;;;;5070704;28;20112;-47
2022/06/01 04:56:25;;;;;;;27.50;24.70;;;11.60;99.90;;;;;;5072187;28;20120;-47
2022/06/01 04:58:50;;;;;;;29.43;25.60;;;11.60;99.90;;;;;;5072388;28;20043;-46
2022/06/01 05:01:16;;;;;;;36.77;29.37;;;11.60;99.90;;;;;;5071488;28;20266;-47
2022/06/01 05:03:41;;;;;;;32.77;29.23;;;11.60;99.90;;;;;;5070662;28;20040;-46
2022/06/01 05:06:07;;;;;;;31.23;27.47;;;11.70;99.90;;;;;;5072081;28;20064;-46
2022/06/01 05:08:33;;;;;;;32.17;28.75;;;11.70;99.90;;;;;;5071421;28;20083;-46
2022/06/01 05:10:58;;;;;;;34.53;30.60;;;11.70;99.90;;;;;;5071148;28;20079;-46
2022/06/01 05:13:24;;;;;;;35.45;29.92;;;11.70;99.90;;;;;;5070517;28;20032;-47
2022/06/01 05:15:55;;;;;;;38.00;31.17;;;11.70;99.90;;;;;;5071300;28;20409;-46
2022/06/01 05:18:21;;;;;;;33.28;29.67;;;11.70;99.90;;;;;;5071825;28;20279;-47
2022/06/01 05:20:47;;;;;;;35.08;31.40;;;11.80;99.90;;;;;;5071481;28;20041;-46
2022/06/01 05:23:16;;;;;;;32.40;28.85;;;11.80;99.90;;;;;;5070141;28;20033;-47
2022/06/01 05:25:42;;;;;;;34.17;30.05;;;11.80;99.90;;;;;;5068039;28;20052;-48
2022/06/01 05:28:07;;;;;;;35.33;31.40;;;11.80;99.90;;;;;;5071636;28;20036;-47
2022/06/01 05:30:33;;;;;;;37.37;33.47;;;11.80;99.90;;;;;;5071351;28;20090;-47
2022/06/01 05:32:58;;;;;;;34.20;30.50;;;11.90;99.90;;;;;;5069405;28;20029;-46
2022/06/01 05:35:24;;;;;;;34.77;29.90;;;11.90;99.90;;;;;;5071371;28;20287;-46
2022/06/01 05:37:50;;;;;;;33.47;30.02;;;12.00;99.90;;;;;;5069962;28;20094;-47
2022/06/01 05:40:15;;;;;;;33.80;30.35;;;12.00;99.90;;;;;;5071432;28;20021;-46
2022/06/01 05:42:41;;;;;;;35.22;31.65;;;12.10;99.90;;;;;;5067421;28;20749;-47
2022/06/01 05:45:07;;;;;;;34.20;28.20;;;12.10;99.90;;;;;;5070297;28;20052;-46
2022/06/01 05:47:34;;;;;;;;;;;12.20;99.90;;;;;;5071713;28;20274;-46
2022/06/01 05:50:00;;;;;;;32.70;29.27;;;12.20;99.90;;;;;;5071197;28;19916;-47
2022/06/01 05:52:25;;;;;;;33.73;28.47;;;12.20;99.90;;;;;;5070935;28;20063;-47
2022/06/01 05:54:51;;;;;;;30.90;27.80;;;12.20;99.90;;;;;;5070837;28;20033;-46
2022/06/01 05:57:16;;;;;;;32.97;28.70;;;12.20;99.90;;;;;;5071015;28;20030;-46
2022/06/01 05:59:42;;;;;;;30.77;26.63;;;12.30;99.90;;;;;;5071399;28;20445;-47
2022/06/01 06:02:08;;;;;;;29.27;25.92;;;12.30;99.90;;;;;;5070541;28;20763;-46
2022/06/01 06:04:34;;;;;;;31.90;28.48;;;12.30;99.90;;;;;;5070538;28;20050;-47
2022/06/01 06:07:00;;;;;;;29.92;26.75;;;12.40;99.90;;;;;;5070875;28;20032;-47
2022/06/01 06:09:26;;;;;;;28.60;25.75;;;12.50;99.90;;;;;;5071032;28;20107;-46
2022/06/01 06:11:52;;;;;;;28.15;25.23;;;12.60;99.90;;;;;;5068851;28;20541;-47
2022/06/01 06:14:19;;;;;;;29.88;25.92;;;12.60;99.90;;;;;;5070320;28;20033;-47
2022/06/01 06:16:45;;;;;;;28.33;25.27;;;12.60;99.90;;;;;;5070140;28;20039;-46
2022/06/01 06:19:12;;;;;;;;;;;12.60;99.90;;;;;;5071473;28;20450;-47
2022/06/01 06:21:38;;;;;;;27.52;24.52;;;12.60;99.90;;;;;;5069665;28;19916;-46
2022/06/01 06:24:15;;;;;;;33.30;26.38;;;12.60;99.90;;;;;;5067887;28;20090;-47
2022/06/01 06:26:42;;;;;;;27.13;24.23;;;12.70;99.90;;;;;;5070112;28;20046;-47
2022/06/01 06:29:10;;;;;;;24.75;21.27;;;12.70;99.90;;;;;;5070390;28;20111;-46
2022/06/01 06:31:37;;;;;;;21.45;19.00;;;12.70;99.90;;;;;;5070047;28;20041;-47
2022/06/01 06:34:03;;;;;;;21.17;18.92;;;12.70;99.90;;;;;;5069788;28;20066;-46
2022/06/01 06:36:29;;;;;;;16.90;15.10;;;12.70;99.90;;;;;;5069021;28;20040;-47
2022/06/01 06:38:54;;;;;;;17.25;15.35;;;12.70;99.90;;;;;;5070437;28;20699;-47
2022/06/01 06:41:21;;;;;;;17.27;14.77;;;12.70;99.90;;;;;;5065531;28;20087;-47
2022/06/01 06:43:47;;;;;;;17.88;14.60;;;12.70;99.90;;;;;;5068272;28;20044;-46
2022/06/01 06:46:16;;;;;;;18.65;15.02;;;12.70;99.90;;;;;;5070005;28;20404;-46
2022/06/01 06:48:44;;;;;;;17.27;14.52;;;12.80;99.90;;;;;;5069348;28;20037;-47
2022/06/01 06:51:10;;;;;;;16.45;14.85;;;12.70;99.90;;;;;;5068599;28;20060;-47
2022/06/01 06:53:36;;;;;;;17.58;15.70;;;12.80;99.90;;;;;;5068433;28;20032;-48
2022/06/01 06:56:02;;;;;;;21.77;17.67;;;12.80;99.90;;;;;;5070401;28;20032;-47
2022/06/01 06:58:27;;;;;;;14.70;13.15;;;12.80;99.90;;;;;;5068530;28;20048;-46
2022/06/01 07:00:53;;;;;;;14.83;13.23;;;12.80;99.90;;;;;;5068627;28;20036;-47
2022/06/01 07:03:19;;;;;;;16.50;13.55;;;12.80;99.90;;;;;;5068292;28;20325;-47
2022/06/01 07:08:29;;;;;;;16.23;14.57;;;12.80;99.90;;;;;;5070036;28;20447;-46
2022/06/01 07:10:56;;;;;;;14.98;13.57;;;12.80;99.90;;;;;;5069235;28;20041;-49
2022/06/01 07:13:22;;;;;;;14.18;12.70;;;12.80;99.90;;;;;;5066397;28;20418;-46
2022/06/01 07:15:48;;;;;;;14.07;12.68;;;12.80;99.90;;;;;;5066105;28;20040;-46
2022/06/01 07:18:14;;;;;;;16.17;12.88;;;12.90;99.90;;;;;;5069591;28;20041;-47
2022/06/01 07:20:40;;;;;;;14.68;13.18;;;12.90;99.90;;;;;;5068213;28;20037;-46
2022/06/01 07:23:06;;;;;;;16.27;14.60;;;12.80;99.90;;;;;;5064717;28;20130;-48
2022/06/01 07:25:32;;;;;;;;;;;12.80;99.90;;;;;;5068809;28;20107;-47
2022/06/01 07:27:57;;;;;;;15.68;14.07;;;12.90;99.90;;;;;;5068560;28;19926;-46
2022/06/01 07:30:23;;;;;;;13.77;12.40;;;12.90;99.90;;;;;;5068062;28;20032;-49
2022/06/01 07:32:49;;;;;;;18.00;16.08;;;12.90;99.90;;;;;;5068913;28;20295;-46
2022/06/01 07:35:16;;;;;;;18.90;17.00;;;13.00;99.90;;;;;;5073671;28;20554;-46
2022/06/01 07:43:13;;;;;;;18.85;17.05;;;13.30;99.90;;;;;;5069318;28;20115;-47
2022/06/01 07:45:42;;;;;;;16.55;14.43;;;13.40;99.90;;;;;;5071298;28;20727;-47
2022/06/01 07:48:08;;;;;;;16.10;14.48;;;13.60;99.90;;;;;;5070898;28;20040;-47
2022/06/01 07:50:35;;;;;;;17.77;14.30;;;13.60;99.90;;;;;;5070346;28;20070;-46
2022/06/01 07:53:02;;;;;;;14.57;13.07;;;13.70;99.90;;;;;;5069396;28;20486;-48
2022/06/01 07:55:32;;;;;;;15.18;13.63;;;13.70;99.90;;;;;;5073403;28;20497;-46
2022/06/01 07:58:02;;;;;;;14.65;13.15;;;13.80;99.90;;;;;;5072993;28;20465;-46
2022/06/01 08:00:28;;;;;;;;;;;13.80;99.90;;;;;;5072848;28;20548;-47
2022/06/01 08:02:53;;;;;;;10.90;10.00;;;13.90;99.90;;;;;;5071462;28;20385;-47
2022/06/01 08:05:21;;;;;;;13.43;12.13;;;13.90;99.90;;;;;;5071775;28;20054;-47
2022/06/01 08:07:47;;;;;;;10.25;9.35;;;14.10;99.90;;;;;;5071346;28;20309;-47
2022/06/01 08:10:16;;;;;;;10.95;9.95;;;14.10;99.90;;;;;;5072367;28;20033;-45
2022/06/01 08:15:26;;;;;;;6.75;6.05;;;14.30;99.90;;;;;;5071497;28;20505;-47
2022/06/01 08:17:55;;;;;;;7.57;6.88;;;14.40;99.90;;;;;;5072676;28;20064;-46
2022/06/01 08:20:21;;;;;;;9.63;8.63;;;14.40;99.90;;;;;;5073006;28;20484;-47
2022/06/01 08:22:47;;;;;;;9.88;7.43;;;14.50;99.90;;;;;;5072009;28;20037;-48
2022/06/01 08:25:16;;;;;;;7.78;7.18;;;14.60;99.90;;;;;;5072926;28;20494;-47
2022/06/01 08:27:41;;;;;;;10.38;9.48;;;14.70;99.90;;;;;;5067686;28;20123;-48
2022/06/01 08:30:08;;;;;;;9.10;8.30;;;14.70;99.90;;;;;;5068894;28;20561;-48
2022/06/01 08:32:33;;;;;;;7.35;6.65;;;14.80;99.90;;;;;;5067104;28;20062;-48
2022/06/01 08:34:59;;;;;;;7.10;6.43;;;14.80;99.90;;;;;;5065577;28;20037;-47
2022/06/01 08:37:24;;;;;;;5.25;4.85;;;14.80;99.90;;;;;;5068766;28;20124;-47
2022/06/01 08:39:50;;;;;;;5.10;4.50;;;15.00;99.90;;;;;;5068421;28;20033;-47
2022/06/01 08:42:19;;;;;;;5.40;4.93;;;15.10;99.90;;;;;;5067845;28;20040;-48
2022/06/01 08:44:48;;;;;;;4.57;4.18;;;15.10;99.90;;;;;;5067186;28;20060;-48
2022/06/01 08:47:26;;;;;;;3.33;2.70;;;15.10;99.90;;;;;;5066465;28;20115;-48
2022/06/01 08:49:52;;;;;;;3.80;3.58;;;15.10;99.90;;;;;;5066640;28;20036;-48
2022/06/01 08:52:21;;;;;;;2.00;0.57;;;15.10;99.90;;;;;;5065720;28;20049;-47
2022/06/01 08:54:46;;;;;;;1.85;0.30;;;14.80;99.90;;;;;;5066742;28;20043;-48
2022/06/01 08:57:20;;;;;;;3.30;0.52;;;14.50;99.90;;;;;;5067404;28;20245;-47
2022/06/01 08:59:58;;;;;;;7.18;0.77;;;14.10;99.90;;;;;;5068124;28;20040;-46
2022/06/01 09:02:39;;;;;;;1.88;0.40;;;13.70;99.90;;;;;;5066960;28;20032;-47
2022/06/01 09:05:18;;;;;;;3.13;0.38;;;13.40;99.90;;;;;;5047614;28;20157;-47
2022/06/01 09:08:01;;;;;;;0.30;0.10;;;13.10;99.90;;;;;;5062592;28;20429;-48
2022/06/01 09:10:55;;;;;;;1.70;0.20;;;12.80;99.90;;;;;;5063247;28;20099;-46
2022/06/01 09:13:26;;;;;;;3.05;0.38;;;12.60;99.90;;;;;;5062520;28;20053;-46
2022/06/01 09:15:54;;;;;;;0.68;0.47;;;12.50;99.90;;;;;;5067244;28;20043;-47
2022/06/01 09:18:24;;;;;;;0.68;0.30;;;12.40;99.90;;;;;;5063575;28;20119;-46
2022/06/01 09:23:34;;;;;;;2.22;0.40;;;12.30;99.90;;;;;;5061832;28;20045;-46
2022/06/01 09:26:00;;;;;;;0.47;0.30;;;12.30;99.90;;;;;;5061049;28;20049;-47
2022/06/01 09:28:27;;;;;;;1.17;0.30;;;12.40;99.90;;;;;;5065092;28;20086;-47
2022/06/01 09:30:59;;;;;;;1.35;0.20;;;12.60;99.90;;;;;;5065917;28;20501;-46
2022/06/01 09:33:33;;;;;;;0.20;0.20;;;12.70;99.90;;;;;;5063010;28;20032;-46
2022/06/01 09:36:07;;;;;;;0.20;0.20;;;12.90;99.90;;;;;;5066387;28;20039;-48
2022/06/01 09:38:39;;;;;;;0.45;0.25;;;13.10;99.90;;;;;;5066404;28;20051;-47
2022/06/01 09:41:09;;;;;;;0.40;0.20;;;13.30;99.90;;;;;;5063566;28;20040;-46
2022/06/01 09:43:39;;;;;;;0.10;0.10;;;13.50;99.90;;;;;;5063883;28;20079;-46
2022/06/01 09:46:06;;;;;;;2.22;0.17;;;13.60;99.90;;;;;;5064542;28;20044;-46
2022/06/01 09:48:38;;;;;;;1.33;0.20;;;13.80;99.90;;;;;;5064814;28;20044;-46
2022/06/01 09:51:16;;;;;;;0.32;0.10;;;13.90;99.90;;;;;;5065130;28;20039;-46
2022/06/01 09:53:47;;;;;;;0.55;0.10;;;14.10;99.90;;;;;;5062327;28;20067;-47
2022/06/01 09:56:30;;;;;;;0.10;0.10;;;14.20;99.90;;;;;;5065692;28;20040;-47
2022/06/01 10:07:28;;;;;;;0.20;0.10;;;14.80;99.90;;;;;;5066157;28;20490;-46
2022/06/01 10:09:59;;;;;;;0.03;0.03;;;14.90;99.90;;;;;;5065816;28;20557;-46
2022/06/01 10:12:34;;;;;;;0.85;0.10;;;15.10;99.90;;;;;;5062534;28;20047;-46
2022/06/01 10:15:02;;;;;;;0.30;0.20;;;15.20;99.90;;;;;;5065656;28;20036;-46
2022/06/01 10:17:36;;;;;;;0.30;0.10;;;15.30;99.90;;;;;;5066394;28;20055;-46
2022/06/01 10:20:22;;;;;;;0.32;0.20;;;15.40;99.90;;;;;;5065285;28;20083;-47
2022/06/01 10:23:09;;;;;;;3.22;0.40;;;15.60;99.90;;;;;;5060953;28;20485;-46
2022/06/01 10:25:44;;;;;;;0.32;0.20;;;15.70;99.90;;;;;;5065184;28;20036;-47
2022/06/01 10:28:48;;;;;;;0.55;0.22;;;15.90;99.90;;;;;;5064584;28;20235;-46
2022/06/01 10:31:33;;;;;;;0.95;0.25;;;16.00;99.90;;;;;;5035337;28;20060;-46
2022/06/01 10:34:09;;;;;;;0.80;0.40;;;16.00;99.90;;;;;;5063822;28;20036;-47
2022/06/01 10:36:37;;;;;;;0.95;0.40;;;15.90;99.90;;;;;;5062427;28;20041;-48
2022/06/01 10:39:23;;;;;;;3.83;1.45;;;15.80;99.90;;;;;;5064966;28;20036;-48
2022/06/01 10:42:15;;;;;;;2.50;1.02;;;15.60;99.90;;;;;;5064569;28;20036;-47
2022/06/01 10:45:12;;;;;;;2.95;0.77;;;15.40;99.90;;;;;;5062420;28;20052;-47
2022/06/01 10:48:05;;;;;;;5.95;1.52;;;15.20;99.90;;;;;;5079820;28;20060;-48
2022/06/01 10:50:42;;;;;;;2.90;1.25;;;15.10;99.90;;;;;;5063174;28;20084;-46
2022/06/01 10:53:17;;;;;;;3.28;0.95;;;15.00;99.90;;;;;;5064008;28;20033;-47
2022/06/01 10:55:44;;;;;;;3.33;0.80;;;14.80;99.90;;;;;;5065655;28;20115;-47
2022/06/01 10:58:22;;;;;;;1.40;0.95;;;14.70;99.90;;;;;;5065248;28;20051;-47
2022/06/01 11:00:56;;;;;;;2.42;1.20;;;14.70;99.90;;;;;;5063741;28;20519;-47
2022/06/01 11:03:35;;;;;;;3.30;0.90;;;14.70;99.90;;;;;;5062913;28;20040;-48
2022/06/01 11:06:16;;;;;;;2.33;0.50;;;14.60;99.90;;;;;;5064377;28;20123;-46
2022/06/01 11:09:01;;;;;;;1.10;0.85;;;14.60;99.90;;;;;;5064323;28;20036;-47
2022/06/01 11:11:50;;;;;;;1.67;0.60;;;14.50;99.90;;;;;;5063184;28;20044;-46
2022/06/01 11:14:46;;;;;;;1.33;0.90;;;14.40;99.90;;;;;;5063607;28;20114;-47
2022/06/01 11:17:25;;;;;;;2.35;1.25;;;14.40;99.90;;;;;;5064167;28;20036;-47
2022/06/01 11:20:29;;;;;;;2.45;1.20;;;14.10;99.90;;;;;;5062076;28;20033;-46
2022/06/01 11:23:22;;;;;;;1.40;1.02;;;14.00;99.90;;;;;;5061613;28;20128;-46
2022/06/01 11:25:54;;;;;;;1.73;0.98;;;13.90;99.90;;;;;;5064065;28;20079;-46
2022/06/01 11:29:00;;;;;;;1.48;0.82;;;13.80;99.90;;;;;;5065216;28;20040;-46
2022/06/01 11:31:27;;;;;;;2.30;1.50;;;13.70;99.90;;;;;;5062038;28;20048;-47
2022/06/01 11:33:59;;;;;;;2.25;1.95;;;13.70;99.90;;;;;;5062103;28;20040;-46
2022/06/01 11:36:37;;;;;;;2.88;1.85;;;13.70;99.90;;;;;;5063704;28;20028;-47
2022/06/01 11:39:33;;;;;;;0.98;0.98;;;13.80;99.90;;;;;;5063715;28;20443;-47
2022/06/01 11:42:09;;;;;;;1.10;0.80;;;13.90;99.90;;;;;;5062236;28;20098;-46
2022/06/01 11:44:37;;;;;;;1.45;0.80;;;14.00;99.90;;;;;;5063085;28;20044;-47
2022/06/01 11:47:09;;;;;;;0.70;0.52;;;14.10;99.90;;;;;;5064970;28;20066;-47
2022/06/01 11:49:41;;;;;;;1.40;1.25;;;14.20;99.90;;;;;;5062700;28;20041;-50
2022/06/01 11:52:24;;;;;;;1.00;0.85;;;14.30;99.90;;;;;;5064679;28;20386;-46
2022/06/01 11:55:11;;;;;;;1.35;0.73;;;14.40;99.90;;;;;;5063784;28;20032;-47
2022/06/01 11:57:54;;;;;;;0.90;0.77;;;14.60;99.90;;;;;;5062611;28;20129;-47
2022/06/01 12:00:40;;;;;;;3.03;0.90;;;14.70;99.90;;;;;;5062986;28;20613;-47
2022/06/01 12:03:24;;;;;;;1.15;0.80;;;14.70;99.90;;;;;;5062741;28;20067;-45
2022/06/01 12:06:06;;;;;;;2.13;0.63;;;14.80;99.90;;;;;;5064648;28;20055;-46
2022/06/01 12:08:44;;;;;;;1.33;0.75;;;14.90;99.90;;;;;;5061971;28;20079;-46
2022/06/01 12:11:33;;;;;;;1.10;0.85;;;15.00;99.90;;;;;;5064039;28;20470;-45
2022/06/01 12:13:59;;;;;;;2.33;1.10;;;15.10;99.90;;;;;;5062735;28;20112;-49
2022/06/01 12:16:29;;;;;;;1.27;0.90;;;15.10;99.90;;;;;;5063990;28;20112;-46
2022/06/01 12:19:02;;;;;;;0.80;0.80;;;15.30;99.90;;;;;;5063632;28;20033;-47
2022/06/01 12:21:41;;;;;;;1.33;1.00;;;15.30;99.90;;;;;;5067553;28;20049;-46
2022/06/01 12:30:21;;;;;;;3.28;0.68;;;15.70;99.90;;;;;;5068854;28;20040;-47
2022/06/01 12:32:59;;;;;;;0.60;0.40;;;15.80;99.90;;;;;;5067091;28;20055;-46
2022/06/01 12:35:29;;;;;;;0.35;0.30;;;15.90;99.90;;;;;;5067538;28;20035;-47
2022/06/01 12:38:03;;;;;;;2.17;0.63;;;16.00;99.90;;;;;;5065533;28;20035;-47
2022/06/01 12:40:29;;;;;;;0.40;0.30;;;15.90;99.90;;;;;;5067619;28;20085;-47
2022/06/01 12:43:00;;;;;;;0.50;0.30;;;15.90;99.90;;;;;;5064788;28;20051;-47
2022/06/01 12:45:40;;;;;;;0.60;0.30;;;15.90;99.90;;;;;;5067983;28;20044;-47
2022/06/01 12:48:16;;;;;;;0.30;0.20;;;16.00;99.90;;;;;;5067066;28;20048;-47
2022/06/01 12:50:59;;;;;;;0.32;0.20;;;16.10;99.90;;;;;;5066179;28;20121;-47
2022/06/01 12:53:26;;;;;;;1.75;0.30;;;16.30;99.90;;;;;;5065354;28;20528;-46
2022/06/01 12:56:17;;;;;;;0.60;0.20;;;16.30;99.90;;;;;;5067611;28;20104;-47
2022/06/01 12:58:44;;;;;;;0.90;0.25;;;16.30;99.90;;;;;;5066170;28;20032;-47
2022/06/01 13:01:10;;;;;;;0.75;0.17;;;16.30;99.90;;;;;;5066528;28;20040;-47
2022/06/01 13:03:43;;;;;;;1.25;0.30;;;16.40;99.90;;;;;;5066378;28;20032;-47
2022/06/01 13:06:12;;;;;;;1.25;0.40;;;16.50;99.90;;;;;;5065881;28;20041;-47
2022/06/01 13:08:39;;;;;;;1.92;0.52;;;16.50;99.90;;;;;;5067426;28;20047;-47
2022/06/01 13:11:21;;;;;;;1.75;0.40;;;16.50;99.90;;;;;;5066752;28;20492;-47
2022/06/01 13:13:47;;;;;;;0.38;0.20;;;16.50;99.90;;;;;;5065422;28;20109;-47
2022/06/01 13:16:13;;;;;;;2.95;0.38;;;16.70;99.90;;;;;;5067418;28;20036;-47
2022/06/01 13:18:42;;;;;;;1.92;0.40;;;16.70;99.90;;;;;;5067031;28;20120;-47
2022/06/01 13:21:31;;;;;;;2.40;0.50;;;16.80;99.90;;;;;;5065331;28;20486;-46
2022/06/01 13:24:03;;;;;;;0.80;0.50;;;16.80;99.90;;;;;;5063583;28;20262;-47
2022/06/01 13:26:36;;;;;;;0.60;0.50;;;16.70;99.90;;;;;;5066856;28;20074;-47
2022/06/01 13:29:09;;;;;;;1.27;0.50;;;16.70;99.90;;;;;;5066765;28;20456;-48